Time;durP1;ratioP1;P1;durP2;ratioP2;P2;SDS_P1;SDS_P2;PMS_P1;PMS_P2;Temp;Humidity;BMP_temperature;BMP_pressure;BME280_temperature;BME280_humidity;BME280_pressure;Samples;Min_cycle;Max_cycle;Signal;HPM_P1;HPM_P2
2022/06/26 00:02:11;;;;;;;8.00;2.80;;;;;;;19.56;100.00;62894.44;5054189;28;20197;-74
2022/06/26 00:04:38;;;;;;;4.73;3.13;;;;;;;19.57;100.00;62892.94;5054134;28;20238;-75
2022/06/26 00:07:07;;;;;;;6.57;3.43;;;;;;;19.66;100.00;62902.69;5054211;28;20201;-75
2022/06/26 00:09:34;;;;;;;3.80;2.67;;;;;;;19.76;100.00;62913.47;5054104;28;20197;-74
2022/06/26 00:12:02;;;;;;;15.93;3.63;;;;;;;19.73;100.00;62910.22;5054129;28;20204;-74
2022/06/26 00:14:29;;;;;;;7.50;3.30;;;;;;;19.05;100.00;62837.84;5052966;28;20263;-75
2022/06/26 00:16:56;;;;;;;4.40;2.70;;;;;;;19.75;100.00;62914.97;5053854;28;20672;-74
2022/06/26 00:19:24;;;;;;;6.83;3.20;;;;;;;19.77;100.00;62919.72;5053963;28;20208;-74
2022/06/26 00:21:52;;;;;;;4.10;3.00;;;;;;;19.77;100.00;62914.56;5053688;28;20197;-75
2022/06/26 00:24:22;;;;;;;10.93;3.27;;;;;;;19.71;100.00;62908.06;5053741;28;20656;-75
2022/06/26 00:26:49;;;;;;;4.77;2.90;;;;;;;19.38;100.00;62878.66;5052693;28;20236;-74
2022/06/26 00:29:16;;;;;;;6.70;3.20;;;;;;;19.56;100.00;62892.41;5053904;28;20244;-75
2022/06/26 00:31:43;;;;;;;5.83;3.00;;;;;;;19.57;100.00;62893.47;5053562;28;20205;-75
2022/06/26 00:34:10;;;;;;;7.60;3.37;;;;;;;19.63;100.00;62899.97;5053753;28;20284;-75
2022/06/26 00:36:37;;;;;;;7.77;3.67;;;;;;;19.66;100.00;62905.25;5053585;28;20227;-74
2022/06/26 00:39:06;;;;;;;5.30;3.30;;;;;;;19.65;100.00;62901.59;5053315;28;20201;-75
2022/06/26 00:41:34;;;;;;;5.93;3.60;;;;;;;19.51;100.00;62887.00;5053327;28;20659;-75
2022/06/26 00:44:01;;;;;;;6.20;4.10;;;;;;;19.66;100.00;62903.19;5053167;28;20258;-75
2022/06/26 00:46:28;;;;;;;10.60;4.80;;;;;;;19.59;100.00;62892.50;5053243;28;20201;-75
2022/06/26 00:48:56;;;;;;;7.67;4.27;;;;;;;19.10;100.00;62843.22;5055532;28;20682;-74
2022/06/26 00:51:24;;;;;;;8.47;4.50;;;;;;;19.22;100.00;62861.34;5053516;28;20225;-75
2022/06/26 00:53:51;;;;;;;13.57;4.50;;;;;;;18.73;100.00;62811.03;5053035;28;20259;-74
2022/06/26 00:56:19;;;;;;;10.33;4.40;;;;;;;19.32;100.00;62872.16;5053341;28;20675;-72
2022/06/26 00:58:49;;;;;;;10.93;5.03;;;;;;;19.44;100.00;62878.91;5053424;28;20209;-75
2022/06/26 01:01:17;;;;;;;12.70;5.03;;;;;;;19.49;100.00;62884.84;5052918;28;20600;-75
2022/06/26 01:03:44;;;;;;;9.67;4.87;;;;;;;19.42;100.00;62882.44;5052924;28;20235;-74
2022/06/26 01:06:11;;;;;;;7.47;5.00;;;;;;;19.45;100.00;62885.13;5051942;28;20262;-75
2022/06/26 01:08:39;;;;;;;19.90;5.40;;;;;;;19.46;100.00;62881.59;5052832;28;20201;-74
2022/06/26 01:11:17;;;;;;;8.77;4.97;;;;;;;19.29;100.00;62865.78;5053226;28;20279;-74
2022/06/26 01:13:46;;;;;;;9.77;5.27;;;;;;;19.29;100.00;62863.22;5052829;28;20209;-74
2022/06/26 01:16:18;;;;;;;8.80;4.63;;;;;;;19.44;100.00;62881.50;5052822;28;20207;-75
2022/06/26 01:18:47;;;;;;;7.27;4.70;;;;;;;18.77;100.00;62807.06;5052720;28;20329;-74
2022/06/26 01:21:14;;;;;;;11.80;4.90;;;;;;;19.07;100.00;62845.16;5052775;28;20660;-74
2022/06/26 01:23:43;;;;;;;6.87;4.40;;;;;;;19.05;100.00;62840.41;5052898;28;20216;-74
2022/06/26 01:26:10;;;;;;;8.47;4.83;;;;;;;19.11;100.00;62848.94;5052759;28;20532;-75
2022/06/26 01:28:37;;;;;;;7.47;4.60;;;;;;;19.01;100.00;62832.97;5052291;28;20208;-74
2022/06/26 01:31:05;;;;;;;11.27;4.23;;;;;;;18.99;100.00;62831.34;5052141;28;20208;-74
2022/06/26 01:33:33;;;;;;;12.17;4.90;;;;;;;18.86;100.00;62819.88;5052585;28;20201;-75
2022/06/26 01:36:01;;;;;;;9.43;4.87;;;;;;;18.66;100.00;62795.72;5052555;28;20215;-74
2022/06/26 01:38:29;;;;;;;9.73;4.77;;;;;;;18.61;100.00;62790.31;5052221;28;20201;-75
2022/06/26 01:40:58;;;;;;;10.07;4.90;;;;;;;18.50;100.00;62778.44;5052424;28;20204;-73
2022/06/26 01:43:31;;;;;;;9.80;5.27;;;;;;;18.58;100.00;62786.53;5052402;28;20686;-75
2022/06/26 01:45:59;;;;;;;8.20;4.70;;;;;;;18.63;100.00;62797.63;5052087;28;20529;-74
2022/06/26 01:48:27;;;;;;;7.53;4.93;;;;;;;18.64;100.00;62796.13;5051095;28;20578;-74
2022/06/26 01:50:56;;;;;;;10.87;4.10;;;;;;;18.62;100.00;62791.38;5052231;28;20224;-75
2022/06/26 01:53:23;;;;;;;10.40;4.80;;;;;;;18.66;100.00;62795.16;5052106;28;20283;-76
2022/06/26 01:55:53;;;;;;;8.37;4.43;;;;;;;18.61;100.00;62790.31;5052205;28;20201;-75
2022/06/26 01:58:22;;;;;;;10.67;4.77;;;;;;;18.78;100.00;62813.28;5051941;28;20204;-74
2022/06/26 02:00:51;;;;;;;11.27;5.97;;;;;;;18.61;100.00;62792.91;5051728;28;20675;-72
2022/06/26 02:03:18;;;;;;;9.87;4.80;;;;;;;18.76;100.00;62806.50;5051970;28;20258;-74
2022/06/26 02:05:45;;;;;;;9.43;5.40;;;;;;;18.79;100.00;62809.75;5051610;28;20232;-75
2022/06/26 02:08:14;;;;;;;9.57;4.73;;;;;;;18.80;100.00;62805.13;5052065;28;20201;-74
2022/06/26 02:13:37;;;;;;;11.13;4.73;;;;;;;18.98;100.00;62832.28;5051996;28;20739;-74
2022/06/26 02:16:04;;;;;;;10.77;5.70;;;;;;;18.55;100.00;62789.00;5051825;28;20196;-74
2022/06/26 02:18:33;;;;;;;6.33;5.00;;;;;;;19.14;100.00;62852.72;5051764;28;20208;-75
2022/06/26 02:21:02;;;;;;;8.73;4.87;;;;;;;19.20;100.00;62853.47;5051491;28;20660;-74
2022/06/26 02:23:29;;;;;;;9.10;5.23;;;;;;;19.21;100.00;62860.28;5051195;28;20211;-74
2022/06/26 02:25:56;;;;;;;9.10;5.60;;;;;;;19.33;100.00;62873.25;5051433;28;20229;-75
2022/06/26 02:28:24;;;;;;;8.40;5.60;;;;;;;19.25;100.00;62859.44;5051923;28;20233;-75
2022/06/26 02:30:53;;;;;;;13.00;4.83;;;;;;;19.21;100.00;62855.13;5051320;28;20668;-75
2022/06/26 02:33:22;;;;;;;11.63;5.07;;;;;;;18.91;100.00;62827.34;5051744;28;20209;-75
2022/06/26 02:35:50;;;;;;;11.90;5.63;;;;;;;19.17;100.00;62850.78;5051342;28;20213;-76
2022/06/26 02:38:17;;;;;;;13.13;5.60;;;;;;;19.19;100.00;62857.56;5051305;28;20193;-74
2022/06/26 02:40:45;;;;;;;10.40;5.63;;;;;;;19.28;100.00;62867.84;5051698;28;20216;-76
2022/06/26 02:43:12;;;;;;;12.10;6.67;;;;;;;19.29;100.00;62865.78;5051389;28;20198;-75
2022/06/26 02:45:39;;;;;;;9.80;6.13;;;;;;;19.20;100.00;62856.59;5051195;28;20231;-73
2022/06/26 02:48:09;;;;;;;12.17;6.07;;;;;;;19.12;100.00;62850.53;5050171;28;20212;-74
2022/06/26 02:50:37;;;;;;;8.53;5.80;;;;;;;19.12;100.00;62845.38;5055279;28;20227;-74
2022/06/26 02:53:05;;;;;;;13.03;6.20;;;;;;;18.20;100.00;62748.59;5051419;28;20274;-74
2022/06/26 02:55:32;;;;;;;12.77;6.03;;;;;;;19.05;100.00;62843.00;5051125;28;20204;-73
2022/06/26 02:58:00;;;;;;;8.97;6.17;;;;;;;19.05;100.00;62837.84;5051219;28;20200;-74
2022/06/26 03:00:30;;;;;;;13.63;5.80;;;;;;;19.20;100.00;62854.03;5051430;28;20208;-76
2022/06/26 03:02:58;;;;;;;9.27;5.97;;;;;;;19.00;100.00;62835.00;5051170;28;20287;-75
2022/06/26 03:05:26;;;;;;;11.33;5.67;;;;;;;19.04;100.00;62841.91;5051054;28;20229;-75
2022/06/26 03:07:56;;;;;;;10.33;6.57;;;;;;;19.02;100.00;62839.19;5051178;28;20208;-74
2022/06/26 03:10:23;;;;;;;8.87;5.80;;;;;;;18.87;100.00;62818.41;5051130;28;20201;-74
2022/06/26 03:12:50;;;;;;;10.17;6.13;;;;;;;19.08;100.00;62846.22;5051221;28;20205;-76
2022/06/26 03:15:19;;;;;;;12.57;6.43;;;;;;;18.83;100.00;62816.66;5051126;28;20209;-75
2022/06/26 03:17:47;;;;;;;8.47;6.53;;;;;;;19.07;100.00;62845.16;5050997;28;20205;-74
2022/06/26 03:20:15;;;;;;;12.27;6.17;;;;;;;19.14;100.00;62849.56;5051137;28;20289;-75
2022/06/26 03:22:46;;;;;;;12.63;6.40;;;;;;;18.48;100.00;62773.69;5051176;28;20212;-75
2022/06/26 03:25:13;;;;;;;14.23;6.37;;;;;;;18.47;100.00;62775.22;5051184;28;20228;-74
2022/06/26 03:27:41;;;;;;;10.97;6.30;;;;;;;19.19;100.00;62855.53;5051226;28;20233;-75
2022/06/26 03:30:10;;;;;;;13.50;6.47;;;;;;;19.13;100.00;62848.50;5050959;28;20270;-74
2022/06/26 03:32:37;;;;;;;13.37;6.40;;;;;;;19.14;100.00;62850.13;5051084;28;20204;-75
2022/06/26 03:35:07;;;;;;;12.90;6.30;;;;;;;19.24;100.00;62858.34;5050916;28;20745;-74
2022/06/26 03:37:34;;;;;;;12.73;6.30;;;;;;;19.20;100.00;62856.59;5050512;28;20220;-74
2022/06/26 03:40:02;;;;;;;11.33;6.43;;;;;;;19.31;100.00;62865.91;5050798;28;20204;-74
2022/06/26 03:42:31;;;;;;;19.27;6.53;;;;;;;19.33;100.00;62870.13;5050686;28;20209;-73
2022/06/26 03:44:58;;;;;;;12.77;6.10;;;;;;;19.50;100.00;62885.91;5050712;28;20229;-75
2022/06/26 03:47:25;;;;;;;15.57;6.00;;;;;;;19.49;100.00;62884.84;5049617;28;20197;-75
2022/06/26 03:49:53;;;;;;;14.00;5.40;;;;;;;19.26;100.00;62855.34;5050447;28;20205;-74
2022/06/26 03:52:21;;;;;;;11.03;5.40;;;;;;;19.42;100.00;62876.75;5050881;28;20201;-74
2022/06/26 03:54:48;;;;;;;8.07;4.63;;;;;;;19.48;100.00;62885.81;5050583;28;20586;-76
2022/06/26 03:57:18;;;;;;;9.03;4.97;;;;;;;19.49;100.00;62884.84;5050564;28;20204;-73
2022/06/26 03:59:46;;;;;;;10.47;5.33;;;;;;;19.04;100.00;62836.75;5050818;28;20201;-74
2022/06/26 04:02:16;;;;;;;9.90;5.53;;;;;;;19.51;100.00;62886.47;5051198;28;20300;-74
2022/06/26 04:04:42;;;;;;;15.77;5.10;;;;;;;19.51;100.00;62884.41;5054118;28;20711;-75
2022/06/26 04:07:12;;;;;;;9.83;5.80;;;;;;;19.60;100.00;62899.31;5053993;28;20205;-74
2022/06/26 04:09:39;;;;;;;8.80;5.33;;;;;;;19.61;100.00;62902.44;5054006;28;20240;-74
2022/06/26 04:12:07;;;;;;;10.03;5.50;;;;;;;19.62;100.00;62898.34;5054158;28;20279;-75
2022/06/26 04:14:36;;;;;;;9.53;5.37;;;;;;;19.64;100.00;62900.50;5053963;28;20197;-74
2022/06/26 04:17:02;;;;;;;11.23;5.90;;;;;;;19.16;100.00;62849.69;5054117;28;20223;-75
2022/06/26 04:19:29;;;;;;;13.50;8.97;;;;;;;19.53;100.00;62888.63;5053772;28;20208;-75
2022/06/26 04:21:56;;;;;;;21.93;13.13;;;;;;;19.46;100.00;62879.00;5053860;28;20227;-75
2022/06/26 04:24:23;;;;;;;23.67;15.53;;;;;;;19.33;100.00;62865.50;5053494;28;20224;-75
2022/06/26 04:26:50;;;;;;;23.40;15.37;;;;;;;19.45;100.00;62879.97;5053248;28;20731;-73
2022/06/26 04:29:18;;;;;;;22.37;12.93;;;;;;;18.77;100.00;62807.06;5053711;28;20205;-75
2022/06/26 04:31:47;;;;;;;19.20;13.30;;;;;;;19.46;100.00;62883.66;5053508;28;20197;-75
2022/06/26 04:34:15;;;;;;;15.57;10.07;;;;;;;19.54;100.00;62889.72;5053395;28;20205;-73
2022/06/26 04:36:42;;;;;;;20.23;8.73;;;;;;;19.53;100.00;62891.19;5053227;28;20208;-74
2022/06/26 04:39:09;;;;;;;11.50;7.43;;;;;;;19.65;100.00;62899.00;5053844;28;20212;-75
2022/06/26 04:41:39;;;;;;;10.17;7.27;;;;;;;19.74;100.00;62911.31;5053308;28;20205;-75
2022/06/26 04:44:08;;;;;;;13.57;7.43;;;;;;;19.83;100.00;62921.03;5053574;28;20201;-75
2022/06/26 04:46:35;;;;;;;13.53;7.30;;;;;;;19.47;100.00;62882.13;5053322;28;20753;-74
2022/06/26 04:49:04;;;;;;;13.20;6.97;;;;;;;19.46;100.00;62883.66;5052646;28;20273;-75
2022/06/26 04:51:31;;;;;;;14.43;6.90;;;;;;;19.99;100.00;62935.75;5058729;28;20232;-74
2022/06/26 04:53:58;;;;;;;15.63;6.10;;;;;;;19.44;100.00;62881.50;5055711;28;20216;-75
2022/06/26 04:56:25;;;;;;;12.87;7.03;;;;;;;19.98;100.00;62937.25;5053454;28;20672;-75
2022/06/26 04:58:53;;;;;;;10.70;6.00;;;;;;;19.74;100.00;62911.31;5053544;28;20201;-75
2022/06/26 05:01:20;;;;;;;10.23;5.63;;;;;;;19.78;100.00;62915.66;5053042;28;20643;-75
2022/06/26 05:03:47;;;;;;;11.27;6.37;;;;;;;19.84;100.00;62922.13;5053207;28;20197;-74
2022/06/26 05:06:17;;;;;;;10.83;5.87;;;;;;;20.10;100.00;62952.81;5052933;28;20240;-74
2022/06/26 05:08:44;;;;;;;14.03;6.20;;;;;;;20.22;100.00;62965.81;5052041;28;20209;-74
2022/06/26 05:11:11;;;;;;;16.37;6.67;;;;;;;20.46;100.00;62994.34;5052944;28;20216;-74
2022/06/26 05:13:40;;;;;;;9.60;6.20;;;;;;;20.65;100.00;63011.75;5052592;28;20197;-75
2022/06/26 05:16:07;;;;;;;12.03;6.07;;;;;;;20.72;100.00;63017.31;5052773;28;20209;-75
2022/06/26 05:18:34;;;;;;;14.23;6.43;;;;;;;20.71;100.00;63016.22;5052750;28;20201;-74
2022/06/26 05:21:01;;;;;;;8.83;6.10;;;;;;;21.01;100.00;63048.69;5053036;28;20212;-73
2022/06/26 05:23:29;;;;;;;13.67;6.70;;;;;;;21.15;100.00;63060.19;5052744;28;20652;-74
2022/06/26 05:25:56;;;;;;;8.20;6.03;;;;;;;21.21;100.00;63069.78;5052703;28;20239;-74
2022/06/26 05:28:23;;;;;;;9.93;5.77;;;;;;;21.34;100.00;63083.88;5052614;28;20237;-75
2022/06/26 05:30:50;;;;;;;12.50;6.40;;;;;;;20.84;100.00;63030.28;5052209;28;20212;-75
2022/06/26 05:33:23;;;;;;;9.73;5.10;;;;;;;21.25;100.00;63073.59;5052772;28;20204;-75
2022/06/26 05:35:50;;;;;;;15.23;5.73;;;;;;;21.11;100.00;63053.25;5052920;28;20254;-74
2022/06/26 05:38:17;;;;;;;11.23;6.07;;;;;;;20.62;100.00;63009.06;5052118;28;20200;-74
2022/06/26 05:40:45;;;;;;;11.03;6.17;;;;;;;20.82;100.00;63030.72;5052377;28;20204;-75
2022/06/26 05:43:12;;;;;;;11.40;6.07;;;;;;;20.89;100.00;63035.13;5052457;28;20229;-75
2022/06/26 05:45:39;;;;;;;17.13;6.37;;;;;;;20.78;100.00;63023.25;5052018;28;20232;-73
2022/06/26 05:48:06;;;;;;;10.57;5.63;;;;;;;20.71;100.00;63013.63;5051370;28;20200;-75
2022/06/26 05:50:35;;;;;;;7.17;5.50;;;;;;;20.56;100.00;63004.63;5052157;28;20217;-74
2022/06/26 05:53:02;;;;;;;11.43;6.03;;;;;;;20.59;100.00;63005.28;5052287;28;20211;-74
2022/06/26 05:55:30;;;;;;;10.50;6.30;;;;;;;20.92;100.00;63044.13;5052137;28;20201;-75
2022/06/26 05:57:58;;;;;;;9.53;6.17;;;;;;;21.48;100.00;63101.06;5051968;28;20772;-74
2022/06/26 06:00:26;;;;;;;12.13;5.50;;;;;;;21.93;100.00;63152.41;5052215;28;20255;-75
2022/06/26 06:02:53;;;;;;;10.33;5.93;;;;;;;22.35;100.00;63192.72;5052086;28;20208;-76
2022/06/26 06:05:20;;;;;;;8.13;5.00;;;;;;;22.44;100.00;63207.09;5051706;28;20235;-75
2022/06/26 06:07:47;;;;;;;7.90;5.00;;;;;;;22.17;100.00;63175.81;5051698;28;20221;-75
2022/06/26 06:10:18;;;;;;;7.87;5.57;;;;;;;22.39;100.00;63199.66;5051832;28;20208;-74
2022/06/26 06:12:45;;;;;;;9.20;5.30;;;;;;;23.13;100.00;63278.75;5051797;28;20658;-73
2022/06/26 06:15:14;;;;;;;8.50;3.97;;;;;;;23.43;100.00;63311.31;5051525;28;20197;-73
2022/06/26 06:17:41;;;;;;;5.93;4.07;;;;;;;23.72;100.00;63339.63;5051953;28;20209;-74
2022/06/26 06:20:11;;;;;;;7.90;5.20;;;;;;;23.41;100.00;63303.94;5051762;28;20201;-75
2022/06/26 06:22:40;;;;;;;6.47;4.80;;;;;;;22.72;100.00;63231.75;5049282;28;20660;-74
2022/06/26 06:25:08;;;;;;;13.03;4.93;;;;;;;21.97;100.00;63146.38;5051002;28;20207;-73
2022/06/26 06:27:36;;;;;;;6.10;4.83;;;;;;;22.15;100.00;63173.09;5051092;28;20252;-75
2022/06/26 06:30:04;;;;;;;6.40;4.70;;;;;;;22.62;100.00;63221.97;5051787;28;20197;-74
2022/06/26 06:32:33;;;;;;;8.80;5.07;;;;;;;22.62;100.00;63221.97;5051426;28;20219;-74
2022/06/26 06:35:01;;;;;;;11.10;5.27;;;;;;;22.72;100.00;63232.25;5051600;28;20200;-73
2022/06/26 06:37:29;;;;;;;7.40;5.40;;;;;;;22.63;100.00;63225.66;5051728;28;20232;-75
2022/06/26 06:39:56;;;;;;;10.67;5.10;;;;;;;23.04;100.00;63266.41;5051463;28;20253;-75
2022/06/26 06:42:24;;;;;;;6.87;4.37;;;;;;;23.02;100.00;63266.84;5051392;28;20208;-73
2022/06/26 06:44:51;;;;;;;8.83;4.63;;;;;;;23.01;100.00;63263.16;5051276;28;20266;-74
2022/06/26 06:47:18;;;;;;;6.93;4.67;;;;;;;23.09;100.00;63266.63;5050198;28;20230;-75
2022/06/26 06:49:47;;;;;;;6.23;4.40;;;;;;;23.20;100.00;63283.78;5051357;28;20636;-75
2022/06/26 06:52:14;;;;;;;12.00;5.33;;;;;;;23.48;100.00;63314.66;5052069;28;20223;-75
2022/06/26 06:54:41;;;;;;;12.57;4.90;;;;;;;23.98;100.00;63367.84;5055701;28;20205;-74
2022/06/26 06:57:08;;;;;;;6.27;5.00;;;;;;;23.95;100.00;63365.13;5051592;28;20232;-76
2022/06/26 06:59:35;;;;;;;8.87;4.83;;;;;;;23.48;100.00;63314.16;5051384;28;20211;-74
2022/06/26 07:02:02;;;;;;;6.83;4.70;;;;;;;23.73;100.00;63340.69;5051150;28;20197;-74
2022/06/26 07:04:30;;;;;;;7.60;4.63;;;;;;;23.66;100.00;63333.66;5051409;28;20623;-76
2022/06/26 07:06:58;;;;;;;7.20;4.37;;;;;;;23.85;100.00;63354.25;5051047;28;20225;-75
2022/06/26 07:09:26;;;;;;;7.27;4.03;;;;;;;23.82;100.00;63351.03;5051476;28;20197;-74
2022/06/26 07:11:54;;;;;;;9.73;4.53;;;;;;;24.05;100.00;63378.03;5051437;28;20204;-74
2022/06/26 07:14:21;;;;;;;7.43;4.40;;;;;;;24.16;100.00;63393.13;5051340;28;20213;-75
2022/06/26 07:16:49;;;;;;;8.97;4.70;;;;;;;24.11;100.00;63381.94;5050992;28;20204;-75
2022/06/26 07:19:16;;;;;;;7.70;5.03;;;;;;;24.09;100.00;63377.16;5051078;28;20272;-75
2022/06/26 07:21:47;;;;;;;9.77;4.40;;;;;;;24.09;100.00;63379.78;5050995;28;20243;-73
2022/06/26 07:24:17;;;;;;;10.70;4.60;;;;;;;24.31;100.00;63404.19;5051528;28;20197;-75
2022/06/26 07:26:44;;;;;;;8.03;4.67;;;;;;;24.63;100.00;63437.84;5050714;28;20247;-75
2022/06/26 07:29:11;;;;;;;12.93;4.50;;;;;;;25.19;100.00;63498.66;5050881;28;20205;-74
2022/06/26 07:31:39;;;;;;;8.23;4.30;;;;;;;25.54;100.00;63539.31;5050879;28;20201;-75
2022/06/26 07:34:16;;;;;;;8.00;4.63;;;;;;;25.59;100.00;63542.16;5050913;28;20217;-74
2022/06/26 07:36:45;;;;;;;8.57;5.10;;;;;;;25.59;100.00;63539.53;5052034;28;20212;-73
2022/06/26 07:39:14;;;;;;;9.10;5.00;;;;;;;25.81;100.00;63566.03;5054845;28;20209;-74
2022/06/26 07:41:44;;;;;;;9.43;5.10;;;;;;;25.75;100.00;63558.97;5054685;28;20205;-74
2022/06/26 07:44:12;;;;;;;8.83;4.67;;;;;;;26.21;100.00;63609.00;5054793;28;20247;-75
2022/06/26 07:46:40;;;;;;;5.77;4.37;;;;;;;26.17;100.00;63604.09;5053828;28;20266;-74
2022/06/26 07:49:08;;;;;;;14.30;4.67;;;;;;;25.95;100.00;63581.25;5041297;28;20202;-75
2022/06/26 07:51:35;;;;;;;8.73;5.27;;;;;;;25.60;100.00;63540.59;5053960;28;20221;-74
2022/06/26 07:54:04;;;;;;;10.97;4.67;;;;;;;26.25;100.00;63612.78;5054343;28;20209;-75
2022/06/26 07:56:31;;;;;;;8.93;5.13;;;;;;;26.46;100.00;63635.63;5054807;28;20761;-76
2022/06/26 07:59:00;;;;;;;5.93;4.67;;;;;;;26.71;100.00;63662.81;5054342;28;20201;-76
2022/06/26 08:01:27;;;;;;;7.20;4.10;;;;;;;26.86;100.00;63679.16;5054366;28;20211;-74
2022/06/26 08:03:55;;;;;;;12.33;5.00;;;;;;;26.94;100.00;63689.91;5054293;28;20203;-75
2022/06/26 08:06:23;;;;;;;9.10;5.37;;;;;;;27.17;100.00;63712.84;5054215;28;20224;-74
2022/06/26 08:08:51;;;;;;;6.73;4.63;;;;;;;26.67;100.00;63661.06;5054209;28;20211;-74
2022/06/26 08:11:18;;;;;;;7.63;4.70;;;;;;;26.48;100.00;63638.34;5053995;28;20209;-74
2022/06/26 08:13:46;;;;;;;9.40;5.10;;;;;;;26.50;100.00;63639.97;5054054;28;20632;-74
2022/06/26 08:16:14;;;;;;;10.10;4.80;;;;;;;27.03;100.00;63695.00;5053902;28;20221;-74
2022/06/26 08:18:42;;;;;;;9.47;4.87;;;;;;;27.04;100.00;63703.94;5054287;28;20204;-76
2022/06/26 08:23:59;;;;;;;6.07;4.07;;;;;;;26.56;100.00;63649.13;5043243;28;20659;-75
2022/06/26 08:26:26;;;;;;;7.67;4.00;;;;;;;26.78;100.00;63676.19;5053685;28;20235;-77
2022/06/26 08:28:53;;;;;;;9.63;4.50;;;;;;;27.20;100.00;63715.56;5053791;28;20740;-74
2022/06/26 08:31:22;;;;;;;7.20;4.77;;;;;;;27.41;100.00;63736.38;5053717;28;20596;-75
2022/06/26 08:33:51;;;;;;;10.93;4.23;;;;;;;27.67;100.00;63766.19;5039939;28;20588;-75
2022/06/26 08:36:18;;;;;;;8.93;4.67;;;;;;;27.79;100.00;63784.50;5053226;28;20240;-75
2022/06/26 08:38:45;;;;;;;7.40;4.20;;;;;;;27.54;100.00;63750.53;5053336;28;20587;-74
2022/06/26 08:41:13;;;;;;;9.97;4.90;;;;;;;27.82;100.00;63782.50;5053527;28;20208;-75
2022/06/26 08:43:41;;;;;;;8.57;4.30;;;;;;;27.43;100.00;63738.00;5053614;28;20596;-74
2022/06/26 08:46:09;;;;;;;9.97;3.67;;;;;;;27.81;100.00;63781.44;5053277;28;20228;-75
2022/06/26 08:48:48;;;;;;;6.00;4.07;;;;;;;27.78;100.00;63772.94;5051448;28;20211;-74
2022/06/26 08:51:16;;;;;;;6.57;3.90;;;;;;;27.57;100.00;63753.22;5053603;28;20596;-75
2022/06/26 08:53:44;;;;;;;4.47;3.70;;;;;;;27.88;100.00;63789.03;5055491;28;20213;-75
2022/06/26 08:56:12;;;;;;;7.70;3.67;;;;;;;27.99;100.00;63804.19;5052006;28;20643;-75
2022/06/26 08:58:39;;;;;;;5.87;3.57;;;;;;;28.30;100.00;63834.78;5053000;28;20208;-74
2022/06/26 09:01:08;;;;;;;4.20;2.37;;;;;;;28.49;100.00;63860.75;5053021;28;20201;-75
2022/06/26 09:03:36;;;;;;;4.73;2.73;;;;;;;28.13;100.00;63816.28;5053131;28;20205;-72
2022/06/26 09:06:05;;;;;;;5.60;2.70;;;;;;;28.24;100.00;63828.25;5052735;28;20204;-76
2022/06/26 09:08:43;;;;;;;8.53;3.13;;;;;;;28.70;100.00;63878.38;5053038;28;20204;-74
2022/06/26 09:11:11;;;;;;;9.43;3.60;;;;;;;28.89;100.00;63899.09;5052894;28;20197;-74
2022/06/26 09:13:40;;;;;;;9.50;3.33;;;;;;;28.98;100.00;63908.88;5052834;28;20197;-75
2022/06/26 09:16:08;;;;;;;5.83;3.37;;;;;;;29.20;100.00;63932.88;5052787;28;20334;-74
2022/06/26 09:18:37;;;;;;;5.87;3.07;;;;;;;29.39;100.00;63953.03;5052946;28;20694;-75
2022/06/26 09:21:07;;;;;;;7.90;2.90;;;;;;;29.23;100.00;63938.22;5052586;28;20626;-76
2022/06/26 09:23:36;;;;;;;6.93;3.90;;;;;;;29.28;100.00;63941.03;5052735;28;20686;-75
2022/06/26 09:26:04;;;;;;;5.97;3.40;;;;;;;29.31;100.00;63949.03;5052445;28;20193;-75
2022/06/26 09:28:32;;;;;;;5.50;3.33;;;;;;;28.32;100.00;63842.22;5052112;28;20581;-74
2022/06/26 09:31:00;;;;;;;7.33;3.73;;;;;;;28.70;100.00;63878.38;5052453;28;20211;-74
2022/06/26 09:33:29;;;;;;;6.20;3.13;;;;;;;28.97;100.00;63907.81;5052693;28;20201;-75
2022/06/26 09:35:58;;;;;;;7.53;3.00;;;;;;;27.89;100.00;63790.16;5052691;28;20204;-74
2022/06/26 09:38:29;;;;;;;5.43;3.37;;;;;;;28.51;100.00;63857.66;5052459;28;20205;-74
2022/06/26 09:40:58;;;;;;;5.50;3.23;;;;;;;28.62;100.00;63869.13;5052364;28;20205;-74
2022/06/26 09:43:33;;;;;;;5.83;3.07;;;;;;;29.45;100.00;63956.41;5052395;28;20283;-74
2022/06/26 09:46:02;;;;;;;5.23;3.27;;;;;;;29.81;100.00;64003.53;5052326;28;20201;-76
2022/06/26 09:48:29;;;;;;;8.47;2.80;;;;;;;30.22;100.00;64045.63;5050949;28;20667;-73
2022/06/26 09:50:57;;;;;;;7.40;3.37;;;;;;;30.30;100.00;64057.00;5052002;28;20730;-76
2022/06/26 09:53:27;;;;;;;4.60;3.07;;;;;;;29.98;100.00;64019.47;5051907;28;20202;-75
2022/06/26 09:55:55;;;;;;;6.23;3.27;;;;;;;30.56;100.00;64080.13;5052107;28;20692;-75
2022/06/26 09:58:23;;;;;;;6.40;3.40;;;;;;;30.23;100.00;64041.47;5052001;28;20204;-74
2022/06/26 10:06:28;;;;;;;4.37;3.03;;;;;;;30.91;100.00;64117.75;5051877;28;20221;-76
2022/06/26 10:08:57;;;;;;;6.07;2.80;;;;;;;30.75;100.00;64097.66;5051927;28;20662;-76
2022/06/26 10:11:27;;;;;;;4.10;3.07;;;;;;;30.75;100.00;64098.19;5052005;28;20214;-75
2022/06/26 10:13:58;;;;;;;4.47;2.60;;;;;;;30.71;100.00;64096.47;5051926;28;20295;-74
2022/06/26 10:16:55;;;;;;;6.23;2.93;;;;;;;30.95;100.00;64121.59;5051290;28;20207;-75
2022/06/26 10:19:29;;;;;;;4.83;2.50;;;;;;;30.61;100.00;64085.56;5038966;28;20208;-74
2022/06/26 10:21:57;;;;;;;4.57;2.70;;;;;;;30.32;100.00;64056.00;5051475;28;20199;-75
2022/06/26 10:24:26;;;;;;;4.93;2.70;;;;;;;30.21;100.00;64041.91;5051851;28;20203;-75
2022/06/26 10:26:55;;;;;;;5.40;3.00;;;;;;;29.98;100.00;64016.84;5051170;28;20293;-75
2022/06/26 10:29:33;;;;;;;4.03;2.63;;;;;;;29.25;100.00;63934.59;5051575;28;20206;-75
2022/06/26 10:32:01;;;;;;;3.73;2.50;;;;;;;28.83;100.00;63892.00;5051422;28;20205;-73
2022/06/26 10:34:29;;;;;;;5.67;2.63;;;;;;;29.08;100.00;63917.16;5051731;28;20211;-77
2022/06/26 10:37:01;;;;;;;4.87;2.97;;;;;;;28.92;100.00;63902.34;5051228;28;20208;-75
2022/06/26 10:39:46;;;;;;;7.93;2.70;;;;;;;29.47;100.00;63961.22;5051217;28;20207;-75
2022/06/26 10:45:10;;;;;;;8.43;2.43;;;;;;;29.90;100.00;64008.13;5051365;28;20250;-74
2022/06/26 10:47:43;;;;;;;9.80;3.00;;;;;;;30.34;100.00;64050.84;5050850;28;20219;-75
2022/06/26 10:50:24;;;;;;;3.87;2.90;;;;;;;30.35;100.00;64051.94;5038255;28;20194;-75
2022/06/26 10:52:51;;;;;;;7.20;2.93;;;;;;;30.57;100.00;64080.66;5053802;28;20209;-76
2022/06/26 10:55:19;;;;;;;5.40;2.60;;;;;;;30.83;100.00;64109.00;5051718;28;20202;-74
2022/06/26 10:57:49;;;;;;;5.37;2.80;;;;;;;30.95;100.00;64121.59;5051069;28;20207;-74
2022/06/26 11:00:16;;;;;;;3.60;2.83;;;;;;;30.98;100.00;64124.88;5051268;28;20598;-74
2022/06/26 11:02:46;;;;;;;6.77;2.90;;;;;;;30.97;100.00;64123.78;5051122;28;20574;-73
2022/06/26 11:05:15;;;;;;;6.43;3.30;;;;;;;31.22;100.00;64151.59;5051275;28;20205;-75
2022/06/26 11:07:44;;;;;;;5.60;3.20;;;;;;;31.15;100.00;64143.44;5050916;28;20235;-75
2022/06/26 11:10:13;;;;;;;3.70;2.87;;;;;;;30.85;100.00;64111.22;5051021;28;20218;-74
2022/06/26 11:12:47;;;;;;;4.50;2.93;;;;;;;31.14;100.00;64139.69;5053788;28;20255;-74
2022/06/26 11:15:27;;;;;;;4.93;2.87;;;;;;;31.21;100.00;64152.59;5055284;28;20207;-74
2022/06/26 11:17:57;;;;;;;6.73;3.33;;;;;;;31.34;100.00;64164.69;5055225;28;20214;-76
2022/06/26 11:23:15;;;;;;;6.97;3.50;;;;;;;31.21;100.00;64152.59;5055095;28;20213;-74
2022/06/26 11:25:43;;;;;;;5.43;3.20;;;;;;;30.95;100.00;64121.59;5054858;28;20735;-75
2022/06/26 11:28:13;;;;;;;4.93;3.13;;;;;;;31.25;100.00;64154.88;5054996;28;20249;-76
2022/06/26 11:30:41;;;;;;;5.60;3.13;;;;;;;31.79;100.00;64213.31;5054854;28;20202;-73
2022/06/26 11:33:09;;;;;;;6.97;2.83;;;;;;;32.01;100.00;64237.34;5054580;28;20685;-73
2022/06/26 11:35:37;;;;;;;4.10;3.27;;;;;;;32.16;100.00;64253.72;5054327;28;20205;-74
2022/06/26 11:38:12;;;;;;;5.40;3.03;;;;;;;31.62;100.00;64192.09;5054821;28;20208;-74
2022/06/26 11:40:40;;;;;;;6.57;2.80;;;;;;;32.24;100.00;64262.47;5054567;28;20205;-74
2022/06/26 11:43:07;;;;;;;4.97;3.00;;;;;;;32.12;100.00;64252.00;5054686;28;20209;-74
2022/06/26 11:45:37;;;;;;;5.00;3.00;;;;;;;31.69;100.00;64205.03;5054740;28;20201;-75